Latest Weather Observations for Truscott

IDW60801

Issued at 8:02 am WST Wednesday 8 July 2015 (issued every 30 minutes, with the page automatically refreshed every 10 minutes)

About weather observations | Map of weather stations | Latest weather observations for WA | Other Formats
Station Details ID: 001020 Name: TRUSCOTT Lat: -14.09 Lon: 126.39 Height: 51.0 m
Data from the previous 72 hours. | See also: Recent months at Truscott
Date/Time
WST
Temp
°C
App
Temp
°C
Dew
Point
Rel
Hum
%
Delta-T
°C
Wind Press
QNH
hPa
Press
MSL
hPa
Rain
since 9 am
mm
Dir
 
Spd
km/h
Gust
km/h
Spd
kts
Gust
kts
08/08:00am 25.0 26.9 19.0 69 3.8 SE 7 9 4 5 1013.0 - 0.0
08/07:30am 24.0 25.9 19.0 73 3.2 SSE 7 9 4 5 1013.0 - 0.0
08/07:00am 23.0 25.9 19.0 78 2.5 SW 2 - 1 - 1013.0 - 0.0
08/06:30am 23.0 26.3 19.0 78 2.5 CALM 0 - 0 - 1012.0 - 0.0
08/06:00am 22.7 25.4 19.5 82 2.0 SSE 4 0 2 0 1012.0 1011.9 0.0
08/05:30am 23.0 25.1 19.0 78 2.5 S 6 - 3 - 1012.0 - 0.0
08/05:00am 23.0 25.4 20.0 83 1.9 S 7 - 4 - 1011.0 - 0.0
08/04:30am 22.0 24.6 20.0 88 1.3 S 6 - 3 - 1011.0 - 0.0
08/04:00am 22.0 24.1 19.0 83 1.9 S 6 - 3 - 1011.0 - 0.0
08/03:30am 22.0 24.9 19.0 83 1.9 SSW 2 - 1 - 1011.0 - 0.0
08/03:00am 22.5 25.4 19.1 81 2.2 SSW 2 - 1 - 1011.0 1010.8 0.0
08/02:30am 22.0 24.9 19.0 83 1.9 N 2 - 1 - 1011.0 - 0.0
08/02:00am 23.0 26.3 19.0 78 2.5 CALM 0 - 0 - 1011.0 - 0.0
08/01:30am 23.0 25.5 19.0 78 2.5 SW 4 - 2 - 1011.0 - 0.0
08/01:00am 23.0 24.6 20.0 83 1.9 S 11 - 6 - 1011.0 - 0.0
08/12:30am 23.0 25.6 20.0 83 1.9 S 6 - 3 - 1011.0 - 0.0
08/12:00am 22.6 25.4 19.6 83 1.9 SSW 4 7 2 4 1012.0 1011.9 0.0
 
Date/Time
WST
Temp
°C
App
Temp
°C
Dew
Point
Rel
Hum
%
Delta-T
°C
Wind Press
QNH
hPa
Press
MSL
hPa
Rain
since 9 am
mm
Dir
 
Spd
km/h
Gust
km/h
Spd
kts
Gust
kts
07/11:30pm 22.0 25.7 20.0 88 1.3 CALM 0 - 0 - 1012.0 - 0.0
07/11:00pm 22.0 25.3 19.0 83 1.9 CALM 0 - 0 - 1012.0 - 0.0
07/10:30pm 22.0 24.6 20.0 88 1.3 SSE 6 - 3 - 1012.0 - 0.0
07/10:00pm 23.0 26.3 20.0 83 1.9 S 2 - 1 - 1012.0 - 0.0
07/09:30pm 23.0 25.6 20.0 83 1.9 S 6 7 3 4 1012.0 - 0.0
07/09:00pm 23.5 27.0 19.6 79 2.5 CALM 0 - 0 - 1012.0 1012.5 0.0
07/08:30pm 24.0 26.6 20.0 78 2.6 E 6 - 3 - 1012.0 - 0.0
07/08:00pm 24.0 26.4 20.0 78 2.6 NNE 7 - 4 - 1012.0 - 0.0
07/07:30pm 24.0 26.6 20.0 78 2.6 NNE 6 - 3 - 1012.0 - 0.0
07/07:00pm 24.0 25.2 20.0 78 2.6 NNE 13 - 7 - 1012.0 - 0.0
07/06:30pm 24.0 24.9 20.0 78 2.6 NE 15 - 8 - 1012.0 - 0.0
07/06:00pm 24.1 24.2 20.4 80 2.4 NNE 20 22 11 12 1012.0 1011.8 0.0
07/05:30pm 25.0 25.8 19.0 69 3.8 NNE 13 - 7 - 1011.0 - 0.0
07/05:00pm 26.0 25.6 18.0 61 5.1 NNE 17 - 9 - 1011.0 - 0.0
07/04:30pm 26.0 26.0 18.0 61 5.1 NNE 15 - 8 - 1011.0 - 0.0
07/04:12pm 26.0 25.5 17.0 57 5.6 NNE 15 - 8 - 1011.0 - 0.0
07/04:00pm 26.0 26.0 18.0 61 5.1 NNE 15 - 8 - 1011.0 - 0.0
07/03:54pm 26.0 26.0 18.0 61 5.1 NNE 15 - 8 - 1010.0 - 0.0
07/03:30pm 26.0 26.5 20.0 69 3.9 NNE 17 - 9 - 1010.0 - 0.0
07/03:00pm 26.7 26.0 18.6 61 5.2 NNE 20 - 11 - 1010.0 1010.1 0.0
07/02:30pm 28.0 26.4 16.0 48 7.4 NNE 19 - 10 - 1010.0 - 0.0
07/02:00pm 27.0 26.2 18.0 58 5.7 N 19 - 10 - 1010.0 - 0.0
07/01:30pm 28.0 26.4 15.0 45 7.9 N 17 - 9 - 1011.0 - 0.0
07/01:00pm 29.0 26.1 13.0 37 9.5 NE 20 - 11 - 1011.0 - 0.0
07/12:30pm 30.0 27.7 13.0 35 10.1 ENE 17 - 9 - 1011.0 - 0.0
07/12:00pm 29.6 27.0 12.1 34 10.2 ENE 17 - 9 - 1011.0 1011.5 0.0
07/11:30am 29.0 26.8 12.0 35 9.9 ENE 15 - 8 - 1012.0 - 0.0
07/11:00am 30.0 27.4 12.0 33 10.5 E 17 - 9 - 1012.0 - 0.0
07/10:30am 29.0 26.5 11.0 32 10.3 E 15 - 8 - 1012.0 - 0.0
07/10:00am 29.0 26.9 11.0 32 10.3 E 13 - 7 - 1013.0 - 0.0
07/09:30am 29.0 27.6 11.0 32 10.3 ENE 9 - 5 - 1013.0 - 0.0
07/09:00am 28.1 26.5 11.6 36 9.5 ESE 11 - 6 - 1014.0 1013.6 0.0
07/08:30am 27.0 26.6 13.0 42 8.2 SE 7 - 4 - 1013.0 - 0.0
07/08:00am 26.0 26.7 16.0 54 6.1 SSW 7 - 4 - 1013.0 - 0.0
07/07:30am 25.0 26.1 17.0 61 5.0 SSW 7 - 4 - 1013.0 - 0.0
07/07:00am 24.0 24.7 17.0 65 4.3 SSW 9 - 5 - 1013.0 - 0.0
07/06:30am 23.0 24.6 17.0 69 3.7 SW 4 - 2 - 1012.0 - 0.0
07/06:00am 22.8 25.2 17.0 70 3.6 CALM 0 - 0 - 1012.0 1012.3 0.0
07/05:30am 23.0 24.3 17.0 69 3.7 WSW 6 - 3 - 1012.0 - 0.0
07/05:00am 23.0 25.1 18.0 73 3.1 WSW 4 - 2 - 1012.0 - 0.0
07/04:30am 22.0 24.8 18.0 78 2.5 CALM 0 - 0 - 1012.0 - 0.0
07/04:00am 23.0 24.5 18.0 73 3.1 SW 7 - 4 - 1011.0 - 0.0
07/03:30am 23.0 24.5 18.0 73 3.1 SSW 7 - 4 - 1011.0 - 0.0
07/03:00am 23.3 24.7 17.7 71 3.5 SSW 7 - 4 - 1011.0 1011.0 0.0
07/02:30am 23.0 24.7 18.0 73 3.1 SSW 6 - 3 - 1011.0 - 0.0
07/02:13am 23.0 25.8 18.0 73 3.1 CALM 0 - 0 - 1011.0 - 0.0
07/02:00am 23.0 24.7 18.0 73 3.1 S 6 - 3 - 1011.0 - 0.0
07/01:40am 23.0 24.3 17.0 69 3.7 S 6 - 3 - 1011.0 - 0.0
07/01:30am 23.0 24.3 17.0 69 3.7 S 6 - 3 - 1011.0 - 0.0
07/01:00am 24.0 24.7 17.0 65 4.3 S 9 - 5 - 1011.0 - 0.0
07/12:30am 24.0 23.9 16.0 61 4.9 S 11 - 6 - 1012.0 - 0.0
07/12:10am 24.0 24.7 16.0 61 4.9 SSW 7 - 4 - 1012.0 - 0.0
07/12:00am 24.2 25.3 15.7 59 5.2 SSE 4 - 2 - 1012.0 1011.8 0.0
 
Date/Time
WST
Temp
°C
App
Temp
°C
Dew
Point
Rel
Hum
%
Delta-T
°C
Wind Press
QNH
hPa
Press
MSL
hPa
Rain
since 9 am
mm
Dir
 
Spd
km/h
Gust
km/h
Spd
kts
Gust
kts
06/11:30pm 24.0 24.9 16.0 61 4.9 ESE 6 - 3 - 1012.0 - 0.0
06/11:04pm 23.0 23.9 16.0 64 4.2 ESE 6 - 3 - 1012.0 - 0.0
06/11:03pm 23.0 23.9 16.0 64 4.2 ESE 6 - 3 - 1012.0 - 0.0
06/11:00pm 23.0 23.9 16.0 64 4.2 E 6 - 3 - 1012.0 - 0.0
06/10:43pm 23.0 23.9 16.0 64 4.2 E 6 - 3 - 1012.0 - 0.0
06/10:30pm 23.0 23.9 16.0 64 4.2 ENE 6 - 3 - 1012.0 - 0.0
06/10:00pm 24.0 24.9 16.0 61 4.9 E 6 - 3 - 1012.0 - 0.0
06/09:30pm 23.0 23.7 16.0 64 4.2 E 7 - 4 - 1013.0 - 0.0
06/09:08pm 23.0 23.9 16.0 64 4.2 E 6 - 3 - 1013.0 - 0.0
06/09:00pm 23.5 24.5 16.3 64 4.4 E 6 - 3 - 1013.0 1012.8 0.0
06/08:30pm 24.0 24.9 16.0 61 4.9 ENE 6 - 3 - 1013.0 - 0.0
06/08:00pm 24.0 26.4 17.0 65 4.3 CALM 0 - 0 - 1013.0 - 0.0
06/07:30pm 24.0 25.2 16.0 61 4.9 NE 4 - 2 - 1012.0 - 0.0
06/07:10pm 24.0 25.3 17.0 65 4.3 ENE 6 - 3 - 1012.0 - 0.0
06/07:00pm 25.0 26.3 17.0 61 5.0 NE 6 - 3 - 1012.0 - 0.0
06/06:30pm 25.0 26.1 17.0 61 5.0 NNE 7 - 4 - 1012.0 - 0.0
06/06:00pm 24.8 25.9 17.0 62 4.8 N 7 - 4 - 1012.0 1011.6 0.0
06/05:30pm 25.0 25.3 17.0 61 5.0 NNE 11 - 6 - 1011.0 - 0.0
06/05:00pm 25.0 24.2 15.0 53 6.0 N 13 - 7 - 1011.0 - 0.0
06/04:30pm 26.0 24.1 13.0 44 7.6 N 15 - 8 - 1011.0 - 0.0
06/04:25pm 27.0 25.2 12.0 39 8.7 N 13 - 7 - 1011.0 - 0.0
06/04:00pm 28.0 25.7 9.0 30 10.5 NNE 11 - 6 - 1011.0 - 0.0
06/03:49pm 29.0 26.7 9.0 28 11.1 NE 11 - 6 - 1011.0 - 0.0
06/03:30pm 29.0 26.3 9.0 28 11.1 NE 13 - 7 - 1010.0 - 0.0
06/03:00pm 28.9 26.2 7.5 26 11.6 ENE 11 - 6 - 1010.0 1010.5 0.0
06/02:30pm 29.0 25.7 8.0 26 11.5 E 15 - 8 - 1011.0 - 0.0
06/02:00pm 30.0 26.5 7.0 23 12.4 E 15 - 8 - 1011.0 - 0.0
06/01:30pm 30.0 26.8 7.0 23 12.4 E 13 - 7 - 1011.0 - 0.0
06/01:00pm 29.0 24.7 7.0 25 11.8 E 19 - 10 - 1011.0 - 0.0
06/12:30pm 28.0 24.8 7.0 26 11.2 ESE 13 - 7 - 1012.0 - 0.0
06/12:00pm 28.0 23.8 5.6 24 11.7 SE 17 - 9 - 1012.0 1012.2 0.0
06/11:30am 28.0 24.5 7.0 26 11.2 SE 15 - 8 - 1013.0 - 0.0
06/11:00am 28.0 24.0 5.0 23 11.8 SSE 15 - 8 - 1013.0 - 0.0
06/10:30am 28.0 23.6 5.0 23 11.8 ESE 17 - 9 - 1014.0 - 0.0
06/10:00am 28.0 25.0 6.0 24 11.5 SE 11 - 6 - 1014.0 - 0.0
06/09:30am 26.0 22.6 6.0 27 10.4 SSE 13 - 7 - 1014.0 - 0.0
06/09:00am 25.4 22.3 7.1 31 9.6 S 13 - 7 - 1015.0 1014.8 0.0
06/08:30am 24.0 21.2 7.0 33 8.9 S 11 - 6 - 1015.0 - 0.0
06/08:00am 24.0 20.8 7.0 33 8.9 S 13 - 7 - 1014.0 - 0.0
06/07:30am 23.0 20.8 8.0 38 7.9 S 9 - 5 - 1014.0 - 0.0
06/07:00am 20.0 18.7 10.0 52 5.4 S 7 - 4 - 1014.0 - 0.0
06/06:30am 19.0 17.5 9.0 52 5.2 S 7 - 4 - 1014.0 - 0.0
06/06:00am 17.9 16.6 10.0 60 4.2 S 7 - 4 - 1014.0 1013.6 0.0
06/05:30am 18.0 16.3 10.0 59 4.3 S 9 - 5 - 1013.0 - 0.0
06/05:00am 18.0 16.7 10.0 59 4.3 S 7 - 4 - 1013.0 - 0.0
06/04:30am 17.0 15.7 10.0 63 3.7 S 7 - 4 - 1013.0 - 0.0
06/04:00am 18.0 16.2 11.0 63 3.8 SSW 11 - 6 - 1012.0 - 0.0
06/03:30am 18.0 16.7 10.0 59 4.3 SW 7 - 4 - 1012.0 - 0.0
06/03:00am 17.2 15.6 8.6 57 4.4 SW 7 - 4 - 1012.0 1012.3 0.0
06/02:30am 17.0 15.5 9.0 59 4.1 SSW 7 - 4 - 1012.0 - 0.0
06/02:00am 17.0 15.7 10.0 63 3.7 SW 7 - 4 - 1012.0 - 0.0
06/01:30am 17.0 16.2 11.0 68 3.2 SW 6 - 3 - 1012.0 - 0.0
06/01:00am 17.0 16.5 12.0 72 2.7 S 6 - 3 - 1013.0 - 0.0
06/12:53am 17.0 16.6 13.0 77 2.2 S 7 - 4 - 1013.0 - 0.0
06/12:30am 17.0 16.6 13.0 77 2.2 SSE 7 - 4 - 1013.0 - 0.0
06/12:00am 18.0 17.8 13.7 76 2.4 SSE 7 - 4 - 1013.0 1013.1 0.0
 
Date/Time
WST
Temp
°C
App
Temp
°C
Dew
Point
Rel
Hum
%
Delta-T
°C
Wind Press
QNH
hPa
Press
MSL
hPa
Rain
since 9 am
mm
Dir
 
Spd
km/h
Gust
km/h
Spd
kts
Gust
kts
05/11:30pm 18.0 17.9 14.0 77 2.3 SE 7 - 4 - 1013.0 - 0.0
05/11:00pm 18.0 17.6 13.0 72 2.8 E 7 - 4 - 1013.0 - 0.0
05/10:30pm 19.0 18.9 14.0 73 2.9 E 7 - 4 - 1013.0 - 0.0
05/10:00pm 19.0 18.6 14.0 73 2.9 E 9 - 5 - 1013.0 - 0.0
05/09:30pm 19.0 18.9 14.0 73 2.9 E 7 - 4 - 1014.0 - 0.0
05/09:00pm 20.0 19.5 13.7 67 3.6 E 9 - 5 - 1014.0 1013.7 0.0
05/08:30pm 20.0 19.6 13.0 64 4.0 E 7 - 4 - 1014.0 - 0.0
05/08:00pm 20.0 18.9 12.0 60 4.5 E 9 - 5 - 1014.0 - 0.0
05/07:41pm 20.0 20.3 11.0 56 4.9 CALM 0 - 0 - 1013.0 - 0.0
05/07:30pm 20.0 20.3 11.0 56 4.9 CALM 0 - 0 - 1013.0 - 0.0
05/07:00pm 21.0 21.3 11.0 52 5.5 CALM 0 - 0 - 1013.0 - 0.0
05/06:30pm 22.0 22.2 12.0 53 5.6 NNE 2 - 1 - 1013.0 - 0.0
05/06:00pm 22.7 23.1 12.6 53 5.8 N 2 - 1 - 1013.0 1012.8 0.0
05/05:30pm 24.0 24.9 14.0 53 5.9 NNE 2 - 1 - 1012.0 - 0.0
05/05:00pm 25.0 24.2 13.0 47 7.0 NNE 9 - 5 - 1012.0 - 0.0
05/04:30pm 26.0 24.6 11.0 39 8.5 NNE 9 - 5 - 1012.0 - 0.0
05/04:00pm 27.0 24.2 10.0 34 9.5 N 15 - 8 - 1012.0 - 0.0
05/03:30pm 27.0 24.6 10.0 34 9.5 N 13 - 7 - 1012.0 - 0.0
05/03:00pm 26.5 23.8 11.8 40 8.4 N 17 - 9 - 1012.0 1011.9 0.0
05/02:30pm 27.0 24.7 14.0 44 7.7 N 19 - 10 - 1012.0 - 0.0
05/02:00pm 27.0 23.4 10.0 34 9.5 N 19 - 10 - 1012.0 - 0.0
05/01:30pm 29.0 25.8 5.0 21 12.4 NNE 11 - 6 - 1012.0 - 0.0
05/01:00pm 29.0 25.0 3.0 19 13.0 E 13 - 7 - 1013.0 - 0.0
05/12:30pm 29.0 24.8 4.0 20 12.7 E 15 - 8 - 1013.0 - 0.0
05/12:00pm 28.1 23.9 3.7 21 12.3 E 15 - 8 - 1014.0 1014.0 0.0
05/11:30am 28.0 24.2 4.0 21 12.1 E 13 - 7 - 1014.0 - 0.0
05/11:00am 28.0 23.7 3.0 20 12.4 E 15 - 8 - 1015.0 - 0.0
05/10:30am 27.0 23.0 3.0 21 11.9 ESE 13 - 7 - 1015.0 - 0.0
05/10:00am 27.0 23.2 4.0 23 11.6 ESE 13 - 7 - 1015.0 - 0.0
05/09:30am 27.0 22.7 3.0 21 11.9 ESE 15 - 8 - 1016.0 - 0.0
05/09:00am 25.7 21.7 3.0 23 11.1 ESE 13 - 7 - 1016.0 1016.0 0.0
05/08:30am 25.0 19.9 3.0 24 10.7 ESE 19 - 10 - 1016.0 - 0.0

Other Formats:

Comma delimited format used in spreadsheet applications
http://www.bom.gov.au/fwo/IDW60801/IDW60801.95101.axf

JavaScript Object Notation format (JSON) in row-major order
http://www.bom.gov.au/fwo/IDW60801/IDW60801.95101.json